Time;durP1;ratioP1;P1;durP2;ratioP2;P2;SDS_P1;SDS_P2;PMS_P1;PMS_P2;Temp;Humidity;BMP_temperature;BMP_pressure;BME280_temperature;BME280_humidity;BME280_pressure;Samples;Min_cycle;Max_cycle;Signal;HPM_P1;HPM_P2
2023/02/14 09:24:19;;;;;;;15.20;6.57;;;11.00;99.90;;;;;;4658403;23;20242;-69
2023/02/14 09:26:46;;;;;;;12.63;6.50;;;10.80;99.90;;;;;;4989584;28;20226;-71
2023/02/14 09:29:14;;;;;;;14.63;7.13;;;10.60;99.90;;;;;;4996099;28;20245;-68
2023/02/14 09:31:41;;;;;;;11.93;5.77;;;10.30;99.90;;;;;;4991684;28;20227;-69
2023/02/14 09:34:08;;;;;;;15.83;7.03;;;10.00;99.90;;;;;;4976955;28;20218;-68
2023/02/14 09:36:35;;;;;;;18.27;6.43;;;10.00;99.90;;;;;;4976641;28;20203;-68
2023/02/14 09:39:02;;;;;;;14.53;7.03;;;10.10;99.90;;;;;;4976368;28;20230;-68
2023/02/14 09:41:57;;;;;;;15.87;6.47;;;10.20;99.90;;;;;;4976098;28;20231;-67
2023/02/14 09:44:31;;;;;;;14.70;6.93;;;10.20;99.90;;;;;;4976197;28;20204;-67
2023/02/14 09:47:06;;;;;;;17.93;7.07;;;10.20;99.90;;;;;;4976296;28;20235;-67
2023/02/14 09:49:37;;;;;;;12.53;6.87;;;10.20;99.90;;;;;;4976193;28;20210;-67
2023/02/14 09:52:06;;;;;;;17.77;7.20;;;10.30;99.90;;;;;;4974701;28;20362;-67
2023/02/14 09:54:35;;;;;;;18.97;7.23;;;10.20;99.90;;;;;;4975201;28;20206;-67
2023/02/14 09:57:11;;;;;;;16.40;7.00;;;10.20;99.90;;;;;;4975798;28;20242;-68
2023/02/14 09:59:43;;;;;;;17.27;7.23;;;10.10;99.90;;;;;;4976007;28;20221;-68
2023/02/14 10:02:27;;;;;;;14.77;7.00;;;9.90;99.90;;;;;;4975309;28;20227;-67
2023/02/14 10:05:01;;;;;;;15.43;6.87;;;10.10;99.90;;;;;;4973042;28;20213;-69
2023/02/14 10:07:37;;;;;;;13.90;6.63;;;10.20;99.90;;;;;;4972037;28;20246;-72
2023/02/14 10:10:13;;;;;;;17.17;6.50;;;10.10;99.90;;;;;;4974787;28;20213;-76
2023/02/14 10:12:45;;;;;;;13.50;6.47;;;10.00;99.90;;;;;;4974608;28;20207;-69
2023/02/14 10:15:15;;;;;;;19.20;6.93;;;10.00;99.90;;;;;;4974083;28;20680;-68
2023/02/14 10:17:46;;;;;;;14.00;6.37;;;10.10;99.90;;;;;;4975640;28;20203;-69
2023/02/14 10:20:21;;;;;;;17.17;7.40;;;10.10;99.90;;;;;;4976006;28;20586;-69
2023/02/14 10:22:56;;;;;;;16.90;7.47;;;10.10;99.90;;;;;;4976055;28;20225;-70
2023/02/14 10:25:28;;;;;;;16.80;6.97;;;10.10;99.90;;;;;;4960704;28;20207;-69
2023/02/14 10:28:01;;;;;;;16.50;7.70;;;10.30;99.90;;;;;;4975433;28;20235;-72
2023/02/14 10:30:37;;;;;;;16.33;7.73;;;10.40;99.90;;;;;;4975574;28;20238;-71
2023/02/14 10:33:11;;;;;;;14.07;7.57;;;10.40;99.90;;;;;;4975619;28;20680;-71
2023/02/14 10:35:43;;;;;;;15.20;7.00;;;10.40;99.90;;;;;;4975500;28;20207;-72
2023/02/14 10:38:23;;;;;;;17.97;7.30;;;10.50;99.90;;;;;;4975087;28;20214;-71
2023/02/14 10:41:17;;;;;;;21.57;9.10;;;10.60;99.90;;;;;;4975589;28;20231;-72
2023/02/14 10:43:53;;;;;;;20.43;9.03;;;10.60;99.90;;;;;;4975424;28;20207;-71
2023/02/14 10:46:32;;;;;;;16.97;7.70;;;10.60;99.90;;;;;;4975419;28;20689;-72
2023/02/14 10:49:12;;;;;;;15.57;7.63;;;10.60;99.90;;;;;;4975734;28;20238;-71
2023/02/14 10:51:45;;;;;;;17.47;7.53;;;10.60;99.90;;;;;;4975230;28;20728;-71
2023/02/14 10:54:20;;;;;;;20.47;8.10;;;10.80;99.90;;;;;;4975428;28;20214;-72
2023/02/14 10:56:51;;;;;;;19.50;7.60;;;11.00;99.90;;;;;;4975174;28;20210;-72
2023/02/14 10:59:23;;;;;;;18.23;7.37;;;11.00;99.90;;;;;;4975255;28;20313;-72
2023/02/14 11:01:52;;;;;;;19.67;7.33;;;10.90;99.90;;;;;;4975740;28;20233;-73
2023/02/14 11:04:21;;;;;;;16.37;7.77;;;11.00;99.90;;;;;;4975367;28;20574;-72
2023/02/14 11:06:49;;;;;;;17.33;7.63;;;10.90;99.90;;;;;;4975431;28;20211;-72
2023/02/14 11:09:16;;;;;;;16.80;7.27;;;11.00;99.90;;;;;;4974911;28;20211;-71
2023/02/14 11:11:48;;;;;;;18.23;7.67;;;11.00;99.90;;;;;;4975057;28;20230;-71
2023/02/14 11:14:25;;;;;;;18.03;7.17;;;11.10;99.90;;;;;;4974747;28;20298;-71
2023/02/14 11:16:53;;;;;;;16.03;6.73;;;11.30;99.90;;;;;;4975369;28;20219;-72
2023/02/14 11:19:23;;;;;;;15.80;7.73;;;11.30;99.90;;;;;;4975098;28;20203;-71
2023/02/14 11:21:51;;;;;;;14.27;6.90;;;11.40;99.90;;;;;;4975000;28;20593;-71
2023/02/14 11:24:24;;;;;;;17.30;7.20;;;11.20;99.90;;;;;;4974844;28;20214;-71
2023/02/14 11:26:54;;;;;;;16.73;7.23;;;10.80;99.90;;;;;;4974493;28;20211;-70
2023/02/14 11:29:28;;;;;;;15.10;7.20;;;10.80;99.90;;;;;;4974794;28;20207;-72
2023/02/14 11:31:55;;;;;;;22.70;7.90;;;11.00;99.90;;;;;;4974672;28;20231;-72
2023/02/14 11:34:32;;;;;;;14.27;6.73;;;11.10;99.90;;;;;;4974420;28;20214;-72
2023/02/14 11:36:59;;;;;;;17.10;6.97;;;11.20;99.90;;;;;;4973955;28;20229;-72
2023/02/14 11:39:29;;;;;;;18.40;7.00;;;11.20;99.90;;;;;;4974588;28;20214;-72
2023/02/14 11:41:57;;;;;;;14.03;6.43;;;11.20;99.90;;;;;;4974477;28;20232;-71
2023/02/14 11:44:27;;;;;;;16.43;7.23;;;11.40;99.90;;;;;;4974522;28;20684;-71
2023/02/14 11:46:57;;;;;;;16.70;6.83;;;11.70;99.90;;;;;;4974307;28;20203;-71
2023/02/14 11:49:28;;;;;;;17.23;6.90;;;12.00;99.90;;;;;;4973865;28;20237;-71
2023/02/14 11:51:56;;;;;;;18.87;8.00;;;12.20;99.90;;;;;;4973585;28;20278;-72
2023/02/14 11:54:39;;;;;;;14.77;7.27;;;12.20;99.90;;;;;;4974266;28;20212;-73
2023/02/14 11:57:08;;;;;;;14.83;6.73;;;12.30;99.90;;;;;;4972611;28;20536;-71
2023/02/14 11:59:40;;;;;;;18.27;6.83;;;12.30;99.90;;;;;;4974262;28;20211;-74
2023/02/14 12:02:21;;;;;;;16.97;7.43;;;12.40;99.90;;;;;;4974801;28;20234;-73
2023/02/14 12:04:51;;;;;;;16.37;7.03;;;12.40;99.90;;;;;;4975009;28;20203;-73
2023/02/14 12:07:22;;;;;;;18.63;7.60;;;12.50;99.90;;;;;;4974296;28;20238;-73
2023/02/14 12:10:23;;;;;;;15.07;6.43;;;12.50;99.90;;;;;;4974424;28;20214;-72
2023/02/14 12:12:59;;;;;;;16.13;6.93;;;12.50;99.90;;;;;;4974319;28;20211;-73
2023/02/14 12:15:33;;;;;;;16.20;6.37;;;12.50;99.90;;;;;;4974222;28;20658;-73
2023/02/14 12:18:15;;;;;;;17.60;6.63;;;12.40;99.90;;;;;;4973500;28;20207;-72
2023/02/14 12:20:49;;;;;;;15.10;6.03;;;12.60;99.90;;;;;;4973786;28;20227;-72
2023/02/14 12:23:24;;;;;;;14.63;5.87;;;12.60;99.90;;;;;;4973855;28;20207;-71
2023/02/14 12:25:54;;;;;;;15.40;6.40;;;12.70;99.90;;;;;;4974174;28;20218;-71
2023/02/14 12:28:29;;;;;;;17.97;6.50;;;12.70;99.90;;;;;;4977550;28;20235;-73
2023/02/14 12:30:56;;;;;;;21.57;7.10;;;12.70;99.90;;;;;;4978140;28;20226;-72
2023/02/14 12:33:24;;;;;;;15.67;6.27;;;12.70;99.90;;;;;;4978179;28;20666;-71
2023/02/14 12:35:59;;;;;;;15.70;6.37;;;12.80;99.90;;;;;;4978046;28;20281;-72
2023/02/14 12:38:38;;;;;;;15.83;5.93;;;12.80;99.90;;;;;;4977877;28;20210;-71
2023/02/14 12:41:18;;;;;;;16.77;6.70;;;12.80;99.90;;;;;;4977763;28;20265;-70
2023/02/14 12:43:49;;;;;;;15.93;6.43;;;12.90;99.90;;;;;;4978255;28;20207;-70
2023/02/14 12:46:45;;;;;;;16.40;6.67;;;12.90;99.90;;;;;;4977671;28;20211;-70
2023/02/14 12:49:32;;;;;;;16.50;6.10;;;13.00;99.90;;;;;;4977603;28;20281;-71
2023/02/14 12:52:10;;;;;;;18.80;6.43;;;13.00;99.90;;;;;;4978765;28;20237;-73
2023/02/14 12:54:49;;;;;;;16.40;6.80;;;13.10;99.90;;;;;;4995707;28;20212;-72
2023/02/14 12:57:27;;;;;;;15.20;6.23;;;13.10;99.90;;;;;;4989499;28;20198;-73
2023/02/14 13:00:02;;;;;;;15.57;6.57;;;13.20;99.90;;;;;;4955362;29;20214;-73
2023/02/14 13:03:02;;;;;;;18.43;6.87;;;13.30;99.90;;;;;;4975111;28;20585;-73
2023/02/14 13:05:43;;;;;;;16.57;6.87;;;13.30;99.90;;;;;;4975758;28;20662;-72
2023/02/14 13:08:23;;;;;;;22.10;7.10;;;13.30;99.90;;;;;;4972585;28;20704;-76
2023/02/14 13:11:00;;;;;;;21.33;7.80;;;13.30;99.90;;;;;;4975391;28;20235;-73
2023/02/14 13:13:37;;;;;;;20.47;7.00;;;13.50;99.90;;;;;;4976004;28;20207;-74
2023/02/14 13:16:13;;;;;;;17.80;6.07;;;13.60;99.90;;;;;;4975185;28;20207;-74
2023/02/14 13:18:50;;;;;;;17.97;6.97;;;13.70;99.90;;;;;;4975564;28;20218;-74
2023/02/14 13:21:24;;;;;;;15.43;5.93;;;13.50;99.90;;;;;;4975279;28;20227;-73
2023/02/14 13:23:55;;;;;;;17.13;6.77;;;13.30;99.90;;;;;;4975485;28;20219;-71
2023/02/14 13:26:25;;;;;;;17.70;6.47;;;13.40;99.90;;;;;;4975326;28;20265;-72
2023/02/14 13:28:57;;;;;;;16.53;6.37;;;13.40;99.90;;;;;;4974819;28;20235;-73
2023/02/14 13:31:24;;;;;;;15.97;6.57;;;13.30;99.90;;;;;;4975365;28;20238;-73
2023/02/14 13:33:56;;;;;;;17.13;5.90;;;13.30;99.90;;;;;;4975608;28;20215;-73
2023/02/14 13:36:26;;;;;;;13.83;6.03;;;13.30;99.90;;;;;;4974893;28;20222;-72
2023/02/14 13:38:56;;;;;;;16.67;5.57;;;13.40;99.90;;;;;;4974693;28;20217;-74
2023/02/14 13:41:24;;;;;;;16.50;6.23;;;13.60;99.90;;;;;;4975070;28;20227;-71
2023/02/14 13:43:55;;;;;;;18.30;7.50;;;13.50;99.90;;;;;;4975179;28;20219;-73
2023/02/14 13:46:48;;;;;;;14.03;5.67;;;13.50;99.90;;;;;;4975712;28;20203;-72
2023/02/14 13:49:28;;;;;;;18.27;6.30;;;13.60;99.90;;;;;;4973906;28;20231;-74
2023/02/14 13:52:00;;;;;;;18.17;6.37;;;13.70;99.90;;;;;;4974876;28;20227;-75
2023/02/14 13:54:39;;;;;;;20.23;6.37;;;13.80;99.90;;;;;;4974920;28;20211;-73
2023/02/14 13:57:26;;;;;;;14.37;6.17;;;13.80;99.90;;;;;;4975467;28;20203;-72
2023/02/14 14:00:22;;;;;;;16.53;6.10;;;13.60;99.90;;;;;;4974794;28;20654;-74
2023/02/14 14:02:50;;;;;;;16.17;6.40;;;13.70;99.90;;;;;;4975263;28;20235;-74
2023/02/14 14:06:02;;;;;;;17.93;6.27;;;13.70;99.90;;;;;;4974917;28;20219;-73
2023/02/14 14:08:44;;;;;;;15.13;6.00;;;13.90;99.90;;;;;;4941558;28;20246;-74
2023/02/14 14:11:28;;;;;;;15.73;6.20;;;13.90;99.90;;;;;;4972262;28;20306;-71
2023/02/14 14:13:56;;;;;;;15.27;4.97;;;13.90;99.90;;;;;;4974732;28;20207;-71
2023/02/14 14:16:29;;;;;;;15.77;6.37;;;13.90;99.90;;;;;;4974896;28;20207;-70
2023/02/14 14:18:58;;;;;;;15.83;6.10;;;13.90;99.90;;;;;;4974056;28;20207;-71
2023/02/14 14:21:25;;;;;;;13.07;5.93;;;13.90;99.90;;;;;;4974462;28;20567;-70
2023/02/14 14:24:23;;;;;;;16.93;6.23;;;13.80;99.90;;;;;;4975741;28;20213;-70
2023/02/14 14:26:57;;;;;;;13.90;5.07;;;13.80;99.90;;;;;;4975842;28;20203;-70
2023/02/14 14:29:28;;;;;;;15.40;5.67;;;13.90;99.90;;;;;;4975864;28;20238;-71
2023/02/14 14:31:55;;;;;;;18.63;6.00;;;13.90;99.90;;;;;;4975473;28;20238;-70
2023/02/14 14:34:24;;;;;;;17.80;5.90;;;14.00;99.90;;;;;;4975705;28;20211;-70
2023/02/14 14:37:00;;;;;;;17.07;5.97;;;14.00;99.90;;;;;;4976105;28;20222;-69
2023/02/14 14:39:30;;;;;;;12.70;5.37;;;14.00;99.90;;;;;;4975658;28;20211;-72
2023/02/14 14:42:05;;;;;;;16.60;7.10;;;14.00;99.90;;;;;;4974904;28;20223;-76
2023/02/14 14:44:34;;;;;;;20.73;6.63;;;14.00;99.90;;;;;;4975449;28;20207;-73
2023/02/14 14:47:01;;;;;;;15.07;5.63;;;14.10;99.90;;;;;;4975408;28;20204;-73
2023/02/14 14:49:29;;;;;;;20.43;5.90;;;14.10;99.90;;;;;;4975053;28;20249;-75
2023/02/14 14:51:57;;;;;;;15.33;6.60;;;13.90;99.90;;;;;;4974969;28;20227;-72
2023/02/14 14:54:26;;;;;;;13.13;5.40;;;13.90;99.90;;;;;;4975461;28;20685;-75
2023/02/14 14:56:58;;;;;;;15.57;5.37;;;13.90;99.90;;;;;;4974994;28;20230;-74
2023/02/14 14:59:30;;;;;;;13.97;6.33;;;14.00;99.90;;;;;;4975599;28;20370;-75
2023/02/14 15:01:57;;;;;;;16.30;7.07;;;14.10;99.90;;;;;;4974971;28;20230;-74
2023/02/14 15:04:28;;;;;;;16.07;6.30;;;13.90;99.90;;;;;;4975053;28;20233;-76
2023/02/14 15:06:56;;;;;;;18.47;7.37;;;13.80;99.90;;;;;;4975513;28;20216;-73
2023/02/14 15:09:29;;;;;;;19.27;5.83;;;13.80;99.90;;;;;;4974621;28;20235;-75
2023/02/14 15:14:49;;;;;;;18.30;7.27;;;13.50;99.90;;;;;;4975052;28;20226;-74
2023/02/14 15:17:19;;;;;;;15.90;6.17;;;13.40;99.90;;;;;;4974842;28;20207;-76
2023/02/14 15:19:52;;;;;;;16.13;6.33;;;13.40;99.90;;;;;;4974940;28;20211;-75
2023/02/14 15:22:22;;;;;;;19.17;6.37;;;13.40;99.90;;;;;;4975062;28;20713;-72
2023/02/14 15:24:50;;;;;;;19.23;6.20;;;13.50;99.90;;;;;;4974729;28;20670;-73
2023/02/14 15:27:21;;;;;;;17.90;5.47;;;13.60;99.90;;;;;;4974831;28;20671;-74
2023/02/14 15:29:58;;;;;;;16.53;6.30;;;13.60;99.90;;;;;;4974778;28;20242;-74
2023/02/14 15:32:26;;;;;;;18.27;5.67;;;13.60;99.90;;;;;;4974074;28;20231;-75
2023/02/14 15:34:53;;;;;;;16.87;5.90;;;13.80;99.90;;;;;;4974260;28;20204;-75
2023/02/14 15:37:24;;;;;;;16.20;6.17;;;13.80;99.90;;;;;;4974154;28;20231;-75
2023/02/14 15:39:54;;;;;;;16.57;6.10;;;13.80;99.90;;;;;;4974245;28;20238;-76
2023/02/14 15:42:26;;;;;;;18.70;6.80;;;13.80;99.90;;;;;;4974433;28;20254;-76
2023/02/14 15:45:15;;;;;;;15.07;5.53;;;14.00;99.90;;;;;;4974581;28;20306;-73
2023/02/14 15:47:43;;;;;;;16.30;6.13;;;14.10;99.90;;;;;;4955294;28;20208;-71
2023/02/14 15:50:15;;;;;;;17.97;6.23;;;13.90;99.90;;;;;;4955077;29;20235;-71
2023/02/14 15:52:42;;;;;;;18.03;6.10;;;13.90;99.90;;;;;;4955224;29;20208;-70
2023/02/14 15:55:10;;;;;;;19.13;6.63;;;13.80;99.90;;;;;;4955536;28;20829;-70
2023/02/14 15:57:38;;;;;;;16.37;5.97;;;13.60;99.90;;;;;;4969812;28;20684;-72
2023/02/14 16:00:15;;;;;;;18.20;7.37;;;13.60;99.90;;;;;;4986945;28;20206;-72
2023/02/14 16:02:46;;;;;;;13.53;5.60;;;13.60;99.90;;;;;;4991689;28;20301;-72
2023/02/14 16:05:18;;;;;;;14.33;5.77;;;13.50;99.90;;;;;;4975407;28;20242;-74
2023/02/14 16:08:02;;;;;;;20.10;6.97;;;13.50;99.90;;;;;;4972883;28;20211;-73
2023/02/14 16:10:31;;;;;;;22.10;6.90;;;13.20;99.90;;;;;;4971798;28;20253;-73
2023/02/14 16:13:01;;;;;;;17.27;5.93;;;13.20;99.90;;;;;;4973347;28;20210;-74
2023/02/14 16:15:30;;;;;;;16.47;7.00;;;13.20;99.90;;;;;;4973939;28;20259;-73
2023/02/14 16:17:57;;;;;;;16.47;5.93;;;13.10;99.90;;;;;;4973475;28;20211;-78
2023/02/14 16:20:29;;;;;;;15.87;5.90;;;13.10;99.90;;;;;;4974306;28;20217;-75
2023/02/14 16:23:23;;;;;;;13.03;5.33;;;12.90;99.90;;;;;;4973800;28;20210;-75
2023/02/14 16:25:50;;;;;;;15.97;5.90;;;12.80;99.90;;;;;;4973915;28;20575;-81
2023/02/14 16:28:19;;;;;;;22.47;5.80;;;12.70;99.90;;;;;;4973515;28;20215;-76
2023/02/14 16:30:47;;;;;;;16.70;5.80;;;12.70;99.90;;;;;;4973632;28;20247;-75
2023/02/14 16:33:19;;;;;;;15.63;5.80;;;12.60;99.90;;;;;;4974035;28;20217;-75
2023/02/14 16:35:47;;;;;;;16.40;5.53;;;12.60;99.90;;;;;;4973822;28;20666;-78
2023/02/14 16:38:16;;;;;;;18.33;6.33;;;12.50;99.90;;;;;;4973501;28;20211;-78
2023/02/14 16:40:45;;;;;;;18.40;5.93;;;12.40;99.90;;;;;;4973781;28;20578;-74
2023/02/14 16:43:13;;;;;;;20.30;5.90;;;12.20;99.90;;;;;;4973815;28;20211;-75
2023/02/14 16:45:42;;;;;;;14.70;5.33;;;12.10;99.90;;;;;;4973706;28;20215;-74
2023/02/14 16:48:09;;;;;;;18.53;6.57;;;12.00;99.90;;;;;;4973426;28;20208;-70
2023/02/14 16:50:38;;;;;;;16.27;5.97;;;11.90;99.90;;;;;;4976820;28;20715;-68
2023/02/14 16:53:08;;;;;;;16.60;5.77;;;11.90;99.90;;;;;;4992550;28;20220;-70
